Terminal Aerodrome Forecast
Issued by NWS

Current Version | Previous Version | Text Only | Print | Product List | Glossary On
Versions: 1 2 3 4 5 6 7 8 9 10 11 12 13 14 15 16 17 18 19 20 21 22 23 24 25 26
000
FTUS42 KMLB 261859 AAA
TAFLEE
TAF AMD
KLEE 261859Z 2619/2718 20010KT P6SM VCTS SCT035CB BKN060 BKN250
     FM270000 24005KT P6SM VCSH SCT040 OVC080
     FM270400 23009KT P6SM SCT030 OVC100
     FM271400 23014G20KT P6SM VCSH SCT025 OVC060=

USA.gov is the U.S. government's official web portal to all federal, state and local government web resources and services.